createdAt,value
2022-10-18T00:00:49.905Z,9.33
2022-10-18T00:04:02.472Z,7.17
2022-10-18T00:07:09.139Z,7.50
2022-10-18T00:10:17.739Z,7.77
2022-10-18T00:13:23.404Z,8.40
2022-10-18T00:16:41.319Z,8.47
2022-10-18T00:19:51.087Z,5.40
2022-10-18T00:22:59.341Z,5.73
2022-10-18T00:26:05.175Z,7.60
2022-10-18T00:29:12.353Z,5.53
2022-10-18T00:32:28.818Z,6.60
2022-10-18T00:35:36.563Z,5.43
2022-10-18T00:38:47.305Z,10.00
2022-10-18T00:42:00.247Z,5.20
2022-10-18T00:45:15.656Z,5.10
2022-10-18T00:48:25.030Z,6.03
2022-10-18T00:51:38.211Z,6.87
2022-10-18T00:54:45.101Z,5.43
2022-10-18T00:57:50.522Z,6.60
2022-10-18T01:01:00.447Z,6.13
2022-10-18T01:04:19.580Z,5.93
2022-10-18T01:07:25.164Z,8.00
2022-10-18T01:10:39.341Z,6.47
2022-10-18T01:13:45.093Z,4.63
2022-10-18T01:16:50.468Z,3.07
2022-10-18T01:20:06.479Z,4.93
2022-10-18T01:23:12.016Z,6.40
2022-10-18T01:26:37.037Z,4.90
2022-10-18T01:29:46.961Z,4.63
2022-10-18T01:32:52.252Z,4.37
2022-10-18T01:35:58.995Z,3.87
2022-10-18T01:39:08.812Z,5.20
2022-10-18T01:42:17.248Z,6.10
2022-10-18T01:45:38.282Z,4.33
2022-10-18T01:48:47.807Z,5.53
2022-10-18T01:51:53.913Z,4.50
2022-10-18T01:54:59.471Z,2.80
2022-10-18T01:58:15.679Z,3.77
2022-10-18T02:01:23.794Z,4.80
2022-10-18T02:04:29.129Z,3.43
2022-10-18T02:07:43.073Z,3.80
2022-10-18T02:10:51.125Z,4.50
2022-10-18T02:14:04.826Z,2.30
2022-10-18T02:17:12.111Z,2.00
2022-10-18T02:20:20.427Z,1.57
2022-10-18T02:23:26.294Z,1.80
2022-10-18T02:26:41.784Z,2.80
2022-10-18T02:30:19.204Z,2.37
2022-10-18T02:33:24.759Z,4.07
2022-10-18T02:36:46.889Z,2.77
2022-10-18T02:39:52.444Z,2.77
2022-10-18T02:42:58.573Z,3.07
2022-10-18T02:46:04.448Z,3.30
2022-10-18T02:49:14.834Z,1.90
2022-10-18T02:52:24.676Z,1.83
2022-10-18T02:55:32.818Z,2.43
2022-10-18T02:58:38.708Z,1.50
2022-10-18T03:01:47.522Z,2.70
2022-10-18T03:04:54.471Z,2.03
2022-10-18T03:08:06.742Z,1.73
2022-10-18T03:11:14.445Z,0.90
2022-10-18T03:14:20.592Z,2.33
2022-10-18T03:17:30.585Z,2.50
2022-10-18T03:20:37.884Z,1.27
2022-10-18T03:23:43.832Z,1.13
2022-10-18T03:26:55.587Z,1.13
2022-10-18T03:30:22.204Z,1.07
2022-10-18T03:33:40.336Z,0.80
2022-10-18T03:36:53.118Z,1.10
2022-10-18T03:40:01.805Z,1.70
2022-10-18T03:43:07.518Z,1.30
2022-10-18T03:46:19.816Z,1.70
2022-10-18T03:49:25.671Z,1.30
2022-10-18T03:52:35.814Z,1.30
2022-10-18T03:55:41.811Z,1.50
2022-10-18T03:58:47.035Z,2.20
2022-10-18T04:01:53.204Z,1.90
2022-10-18T04:05:03.269Z,1.10
2022-10-18T04:08:09.226Z,1.40
2022-10-18T04:11:21.917Z,1.33
2022-10-18T04:14:28.063Z,2.17
2022-10-18T04:17:41.662Z,1.30
2022-10-18T04:20:48.384Z,1.10
2022-10-18T04:23:53.880Z,1.10
2022-10-18T04:26:59.483Z,0.90
2022-10-18T04:30:05.900Z,0.90
2022-10-18T04:33:18.998Z,1.50
2022-10-18T04:36:53.567Z,1.00
2022-10-18T04:40:03.721Z,1.10
2022-10-18T04:43:09.637Z,1.10
2022-10-18T04:46:17.499Z,1.00
2022-10-18T04:49:52.207Z,1.93
2022-10-18T04:52:59.285Z,1.20
2022-10-18T04:56:05.059Z,1.00
2022-10-18T04:59:13.139Z,1.50
2022-10-18T05:02:19.100Z,1.90
2022-10-18T05:06:03.153Z,2.13
2022-10-18T05:09:09.137Z,2.00
2022-10-18T05:12:17.990Z,2.10
2022-10-18T05:15:24.331Z,2.10
2022-10-18T05:18:44.173Z,1.80
2022-10-18T05:21:49.919Z,1.40
2022-10-18T05:24:55.612Z,2.30
2022-10-18T05:28:10.529Z,2.77
2022-10-18T05:34:42.172Z,1.53
2022-10-18T05:37:47.983Z,1.87
2022-10-18T05:40:53.933Z,4.13
2022-10-18T05:44:00.118Z,2.30
2022-10-18T05:47:06.156Z,1.73
2022-10-18T05:50:11.550Z,1.70
2022-10-18T05:53:36.319Z,1.60
2022-10-18T05:56:43.213Z,1.67
2022-10-18T05:59:49.205Z,2.37
2022-10-18T06:02:59.442Z,2.83
2022-10-18T06:06:06.257Z,1.33
2022-10-18T06:09:17.956Z,1.90
2022-10-18T06:12:24.024Z,1.83
2022-10-18T06:15:31.476Z,2.07
2022-10-18T06:18:38.555Z,2.73
2022-10-18T06:22:04.236Z,2.73
2022-10-18T06:25:10.221Z,1.93
2022-10-18T06:28:16.356Z,2.23
2022-10-18T06:31:22.464Z,2.97
2022-10-18T06:34:29.140Z,1.67
2022-10-18T06:40:49.023Z,2.27
2022-10-18T06:44:16.684Z,3.67
2022-10-18T06:47:22.389Z,6.47
2022-10-18T06:50:29.378Z,3.03
2022-10-18T06:53:43.759Z,4.27
2022-10-18T06:56:56.855Z,3.93
2022-10-18T07:00:11.838Z,5.40
2022-10-18T07:03:17.284Z,2.50
2022-10-18T07:06:22.809Z,6.77
2022-10-18T07:09:29.810Z,1.83
2022-10-18T07:12:39.687Z,2.23
2022-10-18T07:15:49.682Z,4.00
2022-10-18T07:18:55.694Z,3.67
2022-10-18T07:22:02.319Z,3.40
2022-10-18T07:25:16.828Z,5.80
2022-10-18T07:28:23.783Z,1.67
2022-10-18T07:31:33.872Z,2.83
2022-10-18T07:34:40.950Z,4.30
2022-10-18T07:37:47.435Z,3.70
2022-10-18T07:40:54.835Z,4.67
2022-10-18T07:44:04.947Z,4.60
2022-10-18T07:47:10.646Z,4.33
2022-10-18T07:50:22.790Z,5.10
2022-10-18T07:53:29.027Z,3.97
2022-10-18T07:56:37.333Z,2.20
2022-10-18T07:59:50.005Z,2.77
2022-10-18T08:02:59.631Z,4.03
2022-10-18T08:06:05.701Z,3.57
2022-10-18T08:09:18.565Z,2.30
2022-10-18T08:12:28.264Z,6.13
2022-10-18T08:15:38.229Z,5.27
2022-10-18T08:18:43.993Z,4.07
2022-10-18T08:21:54.190Z,3.63
2022-10-18T08:24:59.951Z,3.23
2022-10-18T08:28:06.423Z,3.77
2022-10-18T08:31:22.480Z,3.27
2022-10-18T08:34:28.280Z,1.97
2022-10-18T08:37:45.038Z,2.13
2022-10-18T08:40:50.471Z,1.63
2022-10-18T08:47:28.950Z,2.13
2022-10-18T08:50:38.145Z,3.20
2022-10-18T08:53:44.134Z,1.53
2022-10-18T08:56:50.552Z,1.20
2022-10-18T09:00:05.344Z,3.57
2022-10-18T09:03:12.101Z,1.43
2022-10-18T09:06:22.702Z,2.37
2022-10-18T09:09:29.100Z,3.67
2022-10-18T09:12:38.961Z,1.90
2022-10-18T09:15:44.941Z,6.20
2022-10-18T09:18:51.896Z,3.40
2022-10-18T09:21:58.638Z,3.50
2022-10-18T09:25:07.228Z,1.67
2022-10-18T09:28:13.720Z,3.40
2022-10-18T09:31:30.672Z,4.77
2022-10-18T09:34:40.557Z,3.70
2022-10-18T09:37:48.675Z,4.53
2022-10-18T09:41:02.696Z,5.30
2022-10-18T09:44:08.523Z,1.97
2022-10-18T09:47:17.012Z,4.63
2022-10-18T09:51:17.769Z,3.67
2022-10-18T09:53:57.418Z,4.87
2022-10-18T09:57:04.093Z,6.47
2022-10-18T10:00:09.774Z,8.63
2022-10-18T10:03:18.504Z,5.90
2022-10-18T10:06:24.643Z,8.07
2022-10-18T10:09:32.197Z,10.97
2022-10-18T10:12:37.800Z,9.93
2022-10-18T10:15:52.196Z,10.30
2022-10-18T10:19:09.375Z,6.20
2022-10-18T10:22:17.894Z,7.07
2022-10-18T10:25:26.675Z,8.03
2022-10-18T10:28:32.292Z,9.20
2022-10-18T10:31:54.807Z,3.70
2022-10-18T10:35:04.842Z,10.37
2022-10-18T10:38:10.762Z,10.13
2022-10-18T10:41:16.885Z,6.57
2022-10-18T10:44:41.737Z,7.60
2022-10-18T10:47:47.652Z,11.47
2022-10-18T10:50:55.316Z,9.80
2022-10-18T10:54:01.520Z,8.07
2022-10-18T10:57:11.550Z,9.93
2022-10-18T11:00:18.494Z,9.63
2022-10-18T11:03:31.888Z,7.13
2022-10-18T11:06:38.112Z,7.53
2022-10-18T11:09:47.507Z,8.37
2022-10-18T11:12:53.310Z,7.30
2022-10-18T11:16:00.749Z,12.47
2022-10-18T11:19:08.084Z,9.37
2022-10-18T11:22:18.186Z,11.53
2022-10-18T11:25:25.315Z,12.47
2022-10-18T11:28:32.871Z,8.40
2022-10-18T11:31:39.462Z,5.27
2022-10-18T11:34:45.399Z,7.43
2022-10-18T11:37:56.069Z,6.77
2022-10-18T11:41:06.241Z,7.90
2022-10-18T11:44:12.795Z,8.23
2022-10-18T11:47:21.746Z,5.27
2022-10-18T11:50:31.859Z,4.10
2022-10-18T11:53:38.867Z,4.33
2022-10-18T11:56:49.415Z,1.37
2022-10-18T11:59:58.773Z,1.50
2022-10-18T12:03:05.711Z,1.37
2022-10-18T12:06:21.901Z,1.80
2022-10-18T12:09:28.778Z,3.47
2022-10-18T12:12:35.233Z,1.30
2022-10-18T12:15:41.515Z,2.20
2022-10-18T12:18:50.817Z,3.03
2022-10-18T12:22:01.223Z,7.13
2022-10-18T12:25:08.871Z,2.60
2022-10-18T12:28:14.318Z,4.27
2022-10-18T12:31:21.491Z,2.43
2022-10-18T12:34:30.339Z,2.63
2022-10-18T12:37:36.279Z,5.90
2022-10-18T12:40:42.253Z,2.80
2022-10-18T12:43:50.921Z,3.83
2022-10-18T12:46:58.529Z,2.80
2022-10-18T12:50:06.795Z,9.37
2022-10-18T12:53:12.858Z,4.20
2022-10-18T12:56:31.768Z,1.67
2022-10-18T12:59:37.855Z,4.23
2022-10-18T13:02:44.517Z,3.70
2022-10-18T13:05:54.723Z,2.83
2022-10-18T13:09:01.036Z,2.27
2022-10-18T13:12:07.521Z,3.27
2022-10-18T13:15:25.654Z,5.33
2022-10-18T13:22:03.482Z,3.57
2022-10-18T13:25:12.693Z,3.87
2022-10-18T13:31:42.070Z,3.83
2022-10-18T13:34:48.065Z,2.57
2022-10-18T13:38:08.805Z,4.20
2022-10-18T13:41:17.465Z,4.80
2022-10-18T13:44:23.240Z,3.47
2022-10-18T13:47:29.129Z,2.33
2022-10-18T13:50:39.449Z,2.80
2022-10-18T13:53:45.303Z,4.57
2022-10-18T13:56:53.768Z,3.30
2022-10-18T13:59:59.542Z,2.73
2022-10-18T14:03:31.595Z,5.10
2022-10-18T14:07:02.579Z,5.00
2022-10-18T14:10:09.797Z,6.27
2022-10-18T14:13:16.321Z,3.83
2022-10-18T14:16:22.683Z,6.27
2022-10-18T14:19:40.379Z,5.20
2022-10-18T14:22:46.046Z,5.37
2022-10-18T14:26:05.595Z,6.77
2022-10-18T14:29:12.135Z,6.20
2022-10-18T14:32:17.985Z,4.43
2022-10-18T14:35:33.020Z,7.03
2022-10-18T14:38:44.996Z,7.47
2022-10-18T14:42:13.350Z,4.20
2022-10-18T14:45:18.967Z,8.63
2022-10-18T14:48:28.542Z,10.27
2022-10-18T14:51:44.036Z,7.87
2022-10-18T14:54:52.776Z,8.03
2022-10-18T14:58:03.148Z,6.57
2022-10-18T15:01:12.641Z,6.43
2022-10-18T15:04:18.442Z,3.13
2022-10-18T15:07:35.976Z,5.13
2022-10-18T15:10:42.039Z,4.17
2022-10-18T15:14:08.570Z,4.40
2022-10-18T15:17:15.242Z,5.53
2022-10-18T15:20:20.794Z,3.57
2022-10-18T15:23:26.305Z,4.17
2022-10-18T15:26:44.817Z,4.00
2022-10-18T15:29:56.972Z,3.03
2022-10-18T15:36:28.249Z,3.40
2022-10-18T15:39:38.318Z,2.53
2022-10-18T15:42:55.829Z,1.50
2022-10-18T15:46:13.308Z,4.87
2022-10-18T15:49:21.046Z,1.23
2022-10-18T15:52:28.265Z,0.70
2022-10-18T15:55:36.452Z,0.60
2022-10-18T15:58:51.079Z,1.80
2022-10-18T16:02:00.362Z,1.20
2022-10-18T16:05:07.187Z,0.90
2022-10-18T16:08:14.481Z,2.40
2022-10-18T16:11:35.875Z,0.90
2022-10-18T16:14:51.635Z,0.80
2022-10-18T16:17:58.600Z,1.80
2022-10-18T16:21:04.841Z,0.90
2022-10-18T16:24:10.798Z,1.10
2022-10-18T16:27:19.423Z,0.90
2022-10-18T16:30:55.622Z,2.60
2022-10-18T16:34:07.459Z,0.90
2022-10-18T16:37:12.876Z,1.27
2022-10-18T16:43:32.470Z,1.07
2022-10-18T16:46:41.268Z,6.77
2022-10-18T16:49:47.097Z,0.93
2022-10-18T16:52:53.015Z,1.40
2022-10-18T16:55:58.977Z,2.97
2022-10-18T16:59:06.117Z,1.13
2022-10-18T17:02:12.287Z,1.23
2022-10-18T17:05:17.737Z,0.90
2022-10-18T17:08:26.500Z,4.13
2022-10-18T17:11:34.032Z,1.00
2022-10-18T17:14:45.923Z,1.33
2022-10-18T17:17:59.026Z,0.70
2022-10-18T17:21:05.550Z,1.13
2022-10-18T17:24:14.142Z,1.07
2022-10-18T17:27:20.466Z,2.50
2022-10-18T17:30:26.487Z,1.10
2022-10-18T17:33:33.816Z,1.93
2022-10-18T17:36:39.851Z,0.70
2022-10-18T17:39:46.667Z,1.33
2022-10-18T17:42:53.016Z,2.47
2022-10-18T17:46:00.993Z,0.87
2022-10-18T17:49:07.719Z,1.00
2022-10-18T17:52:14.191Z,3.20
2022-10-18T17:55:25.953Z,2.10
2022-10-18T17:58:31.851Z,1.13
2022-10-18T18:01:40.098Z,1.73
2022-10-18T18:04:45.898Z,2.73
2022-10-18T18:07:51.980Z,1.13
2022-10-18T18:10:58.235Z,1.67
2022-10-18T18:14:12.666Z,1.07
2022-10-18T18:17:28.578Z,1.90
2022-10-18T18:20:44.028Z,3.43
2022-10-18T18:23:53.055Z,1.17
2022-10-18T18:26:59.916Z,2.07
2022-10-18T18:30:08.285Z,0.70
2022-10-18T18:33:31.642Z,0.97
2022-10-18T18:36:38.427Z,1.10
2022-10-18T18:39:44.450Z,0.77
2022-10-18T18:43:12.177Z,0.90
2022-10-18T18:46:17.736Z,1.80
2022-10-18T18:49:23.598Z,0.90
2022-10-18T18:52:36.664Z,2.03
2022-10-18T18:55:44.400Z,2.00
2022-10-18T18:58:50.325Z,0.87
2022-10-18T19:01:57.509Z,1.00
2022-10-18T19:05:24.914Z,1.73
2022-10-18T19:08:30.815Z,3.23
2022-10-18T19:11:36.997Z,1.13
2022-10-18T19:14:56.150Z,3.13
2022-10-18T19:18:01.755Z,0.90
2022-10-18T19:21:08.824Z,1.00
2022-10-18T19:24:18.855Z,1.73
2022-10-18T19:27:24.823Z,1.13
2022-10-18T19:30:31.492Z,1.67
2022-10-18T19:33:48.381Z,1.17
2022-10-18T19:37:02.605Z,0.83
2022-10-18T19:40:08.564Z,1.00
2022-10-18T19:43:14.588Z,1.00
2022-10-18T19:46:20.791Z,0.90
2022-10-18T19:49:26.482Z,1.10
2022-10-18T19:52:35.775Z,1.90
2022-10-18T19:55:45.011Z,2.50
2022-10-18T19:58:51.893Z,0.97
2022-10-18T20:01:58.111Z,1.30
2022-10-18T20:05:04.927Z,1.10
2022-10-18T20:08:11.108Z,2.30
2022-10-18T20:11:16.636Z,0.90
2022-10-18T20:14:23.490Z,1.60
2022-10-18T20:17:29.537Z,1.23
2022-10-18T20:20:36.118Z,2.10
2022-10-18T20:23:41.791Z,2.63
2022-10-18T20:26:47.734Z,2.33
2022-10-18T20:29:53.760Z,1.00
2022-10-18T20:36:23.818Z,3.20
2022-10-18T20:39:30.229Z,1.73
2022-10-18T20:42:36.522Z,1.00
2022-10-18T20:45:42.078Z,1.10
2022-10-18T20:48:47.783Z,0.97
2022-10-18T20:51:53.474Z,1.27
2022-10-18T20:54:59.230Z,0.83
2022-10-18T20:58:05.036Z,3.20
2022-10-18T21:01:10.647Z,1.00
2022-10-18T21:04:16.398Z,5.40
2022-10-18T21:07:48.574Z,1.37
2022-10-18T21:10:58.377Z,0.93
2022-10-18T21:14:07.317Z,2.60
2022-10-18T21:17:13.797Z,1.73
2022-10-18T21:20:19.363Z,1.00
2022-10-18T21:23:38.363Z,2.30
2022-10-18T21:26:47.426Z,2.43
2022-10-18T21:29:54.727Z,1.33
2022-10-18T21:33:11.798Z,2.20
2022-10-18T21:36:20.347Z,2.50
2022-10-18T21:39:30.211Z,1.67
2022-10-18T21:42:36.352Z,2.10
2022-10-18T21:45:42.152Z,0.90
2022-10-18T21:48:48.114Z,1.60
2022-10-18T21:51:56.069Z,1.07
2022-10-18T21:55:04.206Z,1.33
2022-10-18T21:58:10.055Z,1.53
2022-10-18T22:01:20.304Z,1.03
2022-10-18T22:03:58.103Z,2.30
2022-10-18T22:06:31.781Z,1.07
2022-10-18T22:11:51.175Z,0.80
2022-10-18T22:14:31.616Z,2.00
2022-10-18T22:17:00.100Z,1.00
2022-10-18T22:19:31.843Z,1.00
2022-10-18T22:22:00.678Z,1.67
2022-10-18T22:24:38.809Z,1.67
2022-10-18T22:27:13.122Z,0.93
2022-10-18T22:29:56.558Z,1.00
2022-10-18T22:32:28.179Z,3.80
2022-10-18T22:34:58.939Z,1.37
2022-10-18T22:37:27.331Z,1.73
2022-10-18T22:40:04.173Z,1.87
2022-10-18T22:42:35.816Z,1.00
2022-10-18T22:45:06.405Z,1.10
2022-10-18T22:47:38.219Z,1.00
2022-10-18T22:50:10.638Z,1.40
2022-10-18T22:52:51.554Z,1.17
2022-10-18T22:55:27.414Z,3.60
2022-10-18T22:57:57.705Z,2.57
2022-10-18T23:00:31.386Z,0.90
2022-10-18T23:03:04.076Z,1.80
2022-10-18T23:05:39.703Z,1.90
2022-10-18T23:08:14.481Z,1.13
2022-10-18T23:10:44.622Z,1.80
2022-10-18T23:13:14.382Z,1.33
2022-10-18T23:15:48.395Z,0.83
2022-10-18T23:18:19.692Z,2.40
2022-10-18T23:21:01.384Z,1.00
2022-10-18T23:23:37.600Z,1.10
2022-10-18T23:26:07.366Z,0.70
2022-10-18T23:28:39.722Z,1.73
2022-10-18T23:31:20.821Z,0.80
2022-10-18T23:33:55.997Z,0.80
2022-10-18T23:36:30.168Z,0.70
2022-10-18T23:38:59.110Z,1.57
2022-10-18T23:41:35.868Z,1.23
2022-10-18T23:44:05.649Z,0.80
2022-10-18T23:46:41.903Z,1.30
2022-10-18T23:49:22.386Z,1.03
2022-10-18T23:51:52.596Z,2.00
2022-10-18T23:54:25.313Z,1.10
2022-10-18T23:56:57.628Z,2.53
2022-10-18T23:59:36.149Z,1.30
